createdAt,value
2018-12-05T00:00:17.469Z,3.90
2018-12-05T00:02:48.548Z,3.90
2018-12-05T00:05:19.990Z,4.00
2018-12-05T00:07:51.446Z,4.00
2018-12-05T00:10:24.210Z,4.10
2018-12-05T00:12:55.724Z,4.10
2018-12-05T00:15:30.597Z,4.20
2018-12-05T00:18:03.960Z,4.10
2018-12-05T00:20:38.303Z,4.10
2018-12-05T00:23:09.457Z,4.10
2018-12-05T00:25:42.297Z,4.10
2018-12-05T00:28:13.605Z,4.10
2018-12-05T00:30:48.072Z,4.10
2018-12-05T00:33:19.722Z,3.90
2018-12-05T00:35:53.610Z,4.00
2018-12-05T00:38:27.169Z,4.00
2018-12-05T00:41:02.290Z,4.00
2018-12-05T00:43:33.838Z,4.00
2018-12-05T00:46:06.398Z,4.10
2018-12-05T00:48:38.050Z,4.10
2018-12-05T00:51:09.780Z,4.10
2018-12-05T00:53:41.064Z,4.00
2018-12-05T00:56:12.902Z,4.00
2018-12-05T00:58:46.482Z,4.00
2018-12-05T01:01:21.010Z,3.90
2018-12-05T01:03:52.496Z,3.90
2018-12-05T01:06:25.128Z,3.90
2018-12-05T01:08:56.457Z,3.90
2018-12-05T01:11:28.097Z,3.90
2018-12-05T01:14:00.806Z,4.00
2018-12-05T01:16:33.002Z,4.00
2018-12-05T01:19:04.198Z,4.00
2018-12-05T01:21:35.959Z,4.00
2018-12-05T01:24:07.920Z,4.00
2018-12-05T01:26:40.404Z,4.00
2018-12-05T01:29:14.051Z,3.90
2018-12-05T01:31:47.174Z,3.90
2018-12-05T01:34:21.133Z,3.90
2018-12-05T01:36:54.003Z,3.80
2018-12-05T01:39:25.113Z,3.80
2018-12-05T01:41:56.508Z,3.70
2018-12-05T01:44:29.088Z,3.60
2018-12-05T01:47:02.739Z,3.60
2018-12-05T01:49:34.280Z,3.50
2018-12-05T01:52:06.484Z,3.50
2018-12-05T01:54:37.552Z,3.50
2018-12-05T01:57:09.489Z,3.50
2018-12-05T01:59:38.927Z,3.50
2018-12-05T02:02:13.262Z,3.50
2018-12-05T02:04:54.482Z,3.40
2018-12-05T02:07:26.296Z,3.50
2018-12-05T02:09:59.676Z,3.40
2018-12-05T02:12:32.226Z,3.40
2018-12-05T02:15:04.182Z,3.40
2018-12-05T02:17:36.544Z,3.30
2018-12-05T02:20:06.227Z,3.30
2018-12-05T02:22:37.229Z,3.30
2018-12-05T02:25:10.734Z,3.30
2018-12-05T02:27:44.429Z,3.30
2018-12-05T02:30:16.326Z,3.30
2018-12-05T02:32:50.396Z,3.30
2018-12-05T02:35:23.882Z,3.30
2018-12-05T02:37:58.624Z,3.30
2018-12-05T02:40:32.669Z,3.30
2018-12-05T02:43:05.415Z,3.30
2018-12-05T02:45:36.503Z,3.30
2018-12-05T02:48:08.508Z,3.40
2018-12-05T02:50:39.821Z,3.40
2018-12-05T02:53:14.233Z,3.40
2018-12-05T02:55:46.342Z,3.50
2018-12-05T02:58:18.489Z,3.50
2018-12-05T03:00:49.796Z,3.50
2018-12-05T03:03:24.334Z,3.60
2018-12-05T03:05:56.505Z,3.60
2018-12-05T03:08:28.695Z,3.60
2018-12-05T03:10:59.663Z,3.70
2018-12-05T03:13:31.147Z,3.70
2018-12-05T03:16:02.327Z,3.70
2018-12-05T03:18:36.752Z,3.80
2018-12-05T03:21:10.229Z,3.80
2018-12-05T03:23:42.225Z,3.80
2018-12-05T03:26:18.163Z,3.80
2018-12-05T03:28:52.812Z,3.80
2018-12-05T03:31:26.267Z,3.80
2018-12-05T03:34:00.753Z,3.90
2018-12-05T03:36:32.443Z,3.90
2018-12-05T03:39:08.314Z,3.90
2018-12-05T03:41:42.632Z,3.80
2018-12-05T03:44:16.191Z,3.90
2018-12-05T03:46:50.024Z,3.90
2018-12-05T03:49:23.342Z,4.00
2018-12-05T03:51:54.585Z,4.10
2018-12-05T03:54:29.242Z,4.10
2018-12-05T03:57:00.917Z,4.20
2018-12-05T03:59:35.242Z,4.20
2018-12-05T04:02:07.001Z,4.20
2018-12-05T04:04:39.936Z,4.20
2018-12-05T04:07:13.443Z,4.30
2018-12-05T04:09:46.274Z,4.30
2018-12-05T04:12:17.167Z,4.30
2018-12-05T04:14:49.681Z,4.30
2018-12-05T04:17:20.525Z,4.30
2018-12-05T04:19:50.221Z,4.30
2018-12-05T04:22:21.937Z,4.30
2018-12-05T04:24:54.028Z,4.30
2018-12-05T04:27:26.431Z,4.30
2018-12-05T04:29:58.713Z,4.30
2018-12-05T04:32:30.004Z,4.40
2018-12-05T04:35:03.939Z,4.40
2018-12-05T04:37:34.951Z,4.40
2018-12-05T04:40:07.193Z,4.40
2018-12-05T04:42:41.050Z,4.40
2018-12-05T04:45:13.126Z,4.50
2018-12-05T04:47:46.807Z,4.50
2018-12-05T04:50:21.332Z,4.50
2018-12-05T04:52:52.308Z,4.60
2018-12-05T04:55:25.751Z,4.60
2018-12-05T04:57:56.963Z,4.60
2018-12-05T05:00:28.940Z,4.70
2018-12-05T05:03:00.083Z,4.70
2018-12-05T05:05:34.286Z,4.70
2018-12-05T05:08:05.959Z,4.70
2018-12-05T05:10:39.733Z,4.80
2018-12-05T05:13:11.079Z,4.80
2018-12-05T05:15:42.934Z,4.80
2018-12-05T05:18:13.987Z,4.90
2018-12-05T05:20:45.322Z,4.90
2018-12-05T05:23:17.064Z,4.90
2018-12-05T05:25:49.725Z,4.90
2018-12-05T05:28:20.750Z,4.90
2018-12-05T05:30:52.253Z,5.00
2018-12-05T05:33:23.608Z,5.00
2018-12-05T05:35:55.563Z,5.00
2018-12-05T05:38:26.794Z,5.00
2018-12-05T05:41:01.012Z,5.00
2018-12-05T05:43:32.904Z,5.10
2018-12-05T05:46:06.494Z,5.10
2018-12-05T05:48:40.243Z,5.10
2018-12-05T05:51:12.391Z,5.10
2018-12-05T05:53:43.896Z,5.20
2018-12-05T05:56:17.602Z,5.20
2018-12-05T05:58:48.985Z,5.20
2018-12-05T06:01:26.924Z,5.20
2018-12-05T06:03:57.939Z,5.10
2018-12-05T06:06:35.212Z,5.10
2018-12-05T06:09:08.811Z,5.20
2018-12-05T06:11:45.702Z,5.20
2018-12-05T06:14:17.660Z,5.20
2018-12-05T06:16:50.253Z,5.20
2018-12-05T06:19:23.684Z,5.20
2018-12-05T06:21:56.548Z,5.30
2018-12-05T06:24:30.892Z,5.30
2018-12-05T06:27:06.705Z,5.30
2018-12-05T06:29:40.105Z,5.30
2018-12-05T06:32:12.224Z,5.40
2018-12-05T06:34:44.792Z,5.40
2018-12-05T06:37:16.796Z,5.40
2018-12-05T06:39:48.224Z,5.40
2018-12-05T06:42:20.125Z,5.50
2018-12-05T06:44:51.480Z,5.50
2018-12-05T06:47:23.049Z,5.50
2018-12-05T06:49:54.394Z,5.50
2018-12-05T06:52:26.004Z,5.50
2018-12-05T06:54:59.755Z,5.50
2018-12-05T06:57:31.826Z,5.50
2018-12-05T07:00:03.712Z,5.50
2018-12-05T07:02:36.715Z,5.50
2018-12-05T07:05:12.167Z,5.50
2018-12-05T07:07:44.342Z,5.50
2018-12-05T07:10:18.032Z,5.50
2018-12-05T07:12:50.160Z,5.50
2018-12-05T07:15:24.186Z,5.40
2018-12-05T07:17:56.264Z,5.40
2018-12-05T07:20:27.887Z,5.40
2018-12-05T07:23:01.918Z,5.50
2018-12-05T07:25:35.348Z,5.50
2018-12-05T07:28:07.177Z,5.50
2018-12-05T07:35:37.958Z,5.60
2018-12-05T07:38:09.414Z,5.60
2018-12-05T07:45:39.972Z,5.70
2018-12-05T07:48:11.176Z,5.80
2018-12-05T07:50:42.433Z,5.80
2018-12-05T07:53:14.257Z,5.80
2018-12-05T07:55:48.898Z,5.80
2018-12-05T07:58:27.076Z,5.90
2018-12-05T08:01:01.746Z,5.90
2018-12-05T08:03:32.738Z,6.00
2018-12-05T08:06:06.695Z,6.00
2018-12-05T08:08:38.475Z,6.00
2018-12-05T08:11:11.449Z,6.10
2018-12-05T08:13:42.584Z,6.10
2018-12-05T08:16:16.815Z,6.20
2018-12-05T08:18:48.579Z,6.20
2018-12-05T08:21:20.053Z,6.20
2018-12-05T08:23:54.465Z,6.20
2018-12-05T08:26:26.316Z,6.20
2018-12-05T08:28:57.577Z,6.30
2018-12-05T08:31:29.050Z,6.40
2018-12-05T08:34:03.087Z,6.40
2018-12-05T08:36:35.052Z,6.50
2018-12-05T08:39:08.679Z,6.50
2018-12-05T08:41:41.477Z,6.60
2018-12-05T08:44:13.160Z,6.60
2018-12-05T08:46:47.757Z,6.60
2018-12-05T08:49:19.782Z,6.60
2018-12-05T08:51:52.054Z,6.70
2018-12-05T08:54:23.347Z,6.70
2018-12-05T08:56:55.388Z,6.70
2018-12-05T08:59:26.819Z,6.70
2018-12-05T09:01:58.988Z,6.80
2018-12-05T09:04:32.182Z,6.80
2018-12-05T09:07:04.486Z,6.80
2018-12-05T09:09:35.661Z,6.80
2018-12-05T09:12:10.303Z,6.90
2018-12-05T09:14:42.389Z,6.90
2018-12-05T09:17:14.058Z,6.90
2018-12-05T09:19:45.913Z,6.90
2018-12-05T09:22:17.385Z,7.00
2018-12-05T09:24:51.130Z,7.00
2018-12-05T09:27:25.441Z,7.10
2018-12-05T09:29:56.617Z,7.20
2018-12-05T09:32:28.387Z,7.20
2018-12-05T09:34:59.872Z,7.20
2018-12-05T09:37:34.912Z,7.30
2018-12-05T09:40:06.819Z,7.30
2018-12-05T09:42:39.736Z,7.30
2018-12-05T09:45:14.434Z,7.40
2018-12-05T09:47:46.844Z,7.40
2018-12-05T09:50:17.823Z,7.40
2018-12-05T09:52:49.289Z,7.40
2018-12-05T09:55:27.157Z,7.50
2018-12-05T09:57:59.692Z,7.50
2018-12-05T10:00:31.354Z,7.60
2018-12-05T10:03:05.997Z,7.60
2018-12-05T10:05:38.861Z,7.70
2018-12-05T10:08:13.516Z,7.70
2018-12-05T10:10:44.633Z,7.80
2018-12-05T10:13:19.394Z,7.80
2018-12-05T10:15:51.284Z,7.90
2018-12-05T10:18:23.340Z,7.90
2018-12-05T10:20:56.130Z,7.90
2018-12-05T10:23:28.884Z,8.00
2018-12-05T10:26:00.172Z,8.00
2018-12-05T10:28:32.049Z,8.10
2018-12-05T10:31:03.180Z,8.20
2018-12-05T10:33:38.541Z,8.20
2018-12-05T10:36:13.726Z,8.30
2018-12-05T10:38:44.767Z,8.40
2018-12-05T10:41:16.652Z,8.40
2018-12-05T10:43:48.282Z,8.40
2018-12-05T10:46:19.657Z,8.40
2018-12-05T10:48:56.451Z,8.50
2018-12-05T10:51:29.955Z,8.50
2018-12-05T10:54:03.635Z,8.50
2018-12-05T10:56:34.827Z,8.50
2018-12-05T10:59:07.223Z,8.60
2018-12-05T11:01:53.205Z,8.60
2018-12-05T11:04:44.396Z,8.60
2018-12-05T11:07:21.413Z,8.70
2018-12-05T11:10:01.531Z,8.70
2018-12-05T11:25:36.511Z,8.80
2018-12-05T11:28:12.763Z,8.70
2018-12-05T11:30:46.665Z,8.80
2018-12-05T11:33:24.029Z,8.90
2018-12-05T11:35:58.795Z,8.90
2018-12-05T11:38:38.148Z,8.90
2018-12-05T11:41:09.212Z,8.90
2018-12-05T11:43:40.794Z,9.00
2018-12-05T11:46:13.565Z,9.00
2018-12-05T11:48:48.237Z,9.00
2018-12-05T11:51:19.304Z,9.00
2018-12-05T11:53:52.457Z,9.00
2018-12-05T11:56:27.969Z,9.10
2018-12-05T11:59:04.770Z,9.20
2018-12-05T12:01:36.228Z,9.20
2018-12-05T12:04:07.874Z,9.20
2018-12-05T12:06:39.590Z,9.30
2018-12-05T12:09:11.860Z,9.40
2018-12-05T12:11:45.367Z,9.40
2018-12-05T12:14:17.651Z,9.50
2018-12-05T12:16:51.663Z,9.50
2018-12-05T12:19:23.759Z,9.50
2018-12-05T12:21:54.746Z,9.60
2018-12-05T12:24:35.299Z,9.50
2018-12-05T12:27:06.779Z,9.50
2018-12-05T12:29:38.777Z,9.60
2018-12-05T12:32:12.225Z,9.60
2018-12-05T12:34:48.609Z,9.60
2018-12-05T12:37:19.712Z,9.60
2018-12-05T12:39:55.388Z,9.60
2018-12-05T12:42:31.056Z,9.60
2018-12-05T12:45:05.992Z,9.60
2018-12-05T12:47:37.411Z,9.70
2018-12-05T12:50:11.323Z,9.70
2018-12-05T12:52:42.494Z,9.70
2018-12-05T12:55:14.048Z,9.70
2018-12-05T12:57:47.669Z,9.70
2018-12-05T13:00:24.332Z,9.70
2018-12-05T13:02:57.639Z,9.80
2018-12-05T13:05:38.199Z,9.70
2018-12-05T13:08:09.355Z,9.70
2018-12-05T13:10:43.144Z,9.70
2018-12-05T13:13:15.366Z,9.70
2018-12-05T13:15:54.108Z,9.70
2018-12-05T13:18:27.911Z,9.70
2018-12-05T13:21:02.494Z,9.70
2018-12-05T13:23:33.818Z,9.70
2018-12-05T13:26:11.983Z,9.70
2018-12-05T13:28:46.084Z,9.70
2018-12-05T13:31:18.534Z,9.80
2018-12-05T13:33:52.173Z,9.80
2018-12-05T13:36:24.383Z,9.80
2018-12-05T13:38:55.961Z,9.90
2018-12-05T13:41:33.755Z,9.90
2018-12-05T13:44:07.259Z,9.90
2018-12-05T13:46:39.317Z,9.90
2018-12-05T13:49:14.986Z,9.90
2018-12-05T13:51:47.335Z,9.90
2018-12-05T13:54:22.195Z,9.90
2018-12-05T13:56:58.557Z,9.90
2018-12-05T13:59:30.109Z,9.90
2018-12-05T14:02:03.733Z,9.90
2018-12-05T14:04:35.005Z,9.90
2018-12-05T14:07:06.687Z,9.90
2018-12-05T14:09:38.679Z,9.90
2018-12-05T14:12:14.989Z,9.90
2018-12-05T14:14:49.193Z,9.90
2018-12-05T14:17:21.553Z,9.90
2018-12-05T14:19:55.017Z,10.00
2018-12-05T14:22:27.181Z,10.00
2018-12-05T14:25:08.396Z,10.00
2018-12-05T14:27:42.411Z,10.00
2018-12-05T14:30:13.862Z,10.00
2018-12-05T14:32:45.670Z,10.00
2018-12-05T14:35:17.238Z,10.00
2018-12-05T14:37:58.078Z,10.00
2018-12-05T14:40:32.283Z,10.00
2018-12-05T14:43:04.135Z,9.90
2018-12-05T14:45:37.969Z,10.00
2018-12-05T14:48:10.113Z,9.90
2018-12-05T14:50:41.575Z,10.00
2018-12-05T14:53:13.718Z,9.90
2018-12-05T14:55:45.554Z,9.90
2018-12-05T14:58:19.679Z,10.00
2018-12-05T15:00:51.541Z,9.90
2018-12-05T15:03:23.507Z,9.90
2018-12-05T15:05:59.028Z,9.90
2018-12-05T15:08:35.669Z,9.90
2018-12-05T15:11:09.152Z,9.90
2018-12-05T15:13:45.835Z,9.90
2018-12-05T15:16:19.448Z,9.90
2018-12-05T15:18:51.510Z,9.90
2018-12-05T15:21:23.038Z,9.90
2018-12-05T15:23:58.383Z,9.90
2018-12-05T15:26:30.332Z,10.00
2018-12-05T15:29:08.451Z,10.00
2018-12-05T15:31:40.013Z,10.00
2018-12-05T15:34:14.561Z,9.90
2018-12-05T15:36:48.287Z,10.00
2018-12-05T15:39:21.046Z,10.00
2018-12-05T15:41:52.131Z,10.00
2018-12-05T15:44:24.306Z,10.00
2018-12-05T15:46:57.645Z,10.00
2018-12-05T15:49:30.066Z,10.00
2018-12-05T15:52:03.915Z,10.00
2018-12-05T15:54:36.537Z,10.00
2018-12-05T15:57:10.348Z,10.00
2018-12-05T15:59:42.018Z,10.00
2018-12-05T16:02:13.679Z,10.00
2018-12-05T16:04:48.937Z,9.90
2018-12-05T16:07:19.804Z,9.90
2018-12-05T16:09:51.751Z,9.90
2018-12-05T16:12:23.333Z,9.80
2018-12-05T16:15:01.104Z,9.90
2018-12-05T16:17:32.126Z,9.80
2018-12-05T16:20:06.333Z,9.80
2018-12-05T16:22:37.471Z,9.80
2018-12-05T16:25:09.561Z,9.70
2018-12-05T16:27:43.193Z,9.80
2018-12-05T16:30:14.863Z,9.80
2018-12-05T16:32:46.419Z,9.90
2018-12-05T16:35:18.693Z,9.80
2018-12-05T16:37:51.579Z,9.90
2018-12-05T16:40:26.237Z,9.90
2018-12-05T16:43:00.724Z,9.90
2018-12-05T16:45:48.397Z,9.90
2018-12-05T16:48:19.367Z,10.00
2018-12-05T16:50:53.490Z,10.00
2018-12-05T16:53:24.852Z,10.00
2018-12-05T16:55:58.991Z,10.00
2018-12-05T16:58:30.090Z,10.10
2018-12-05T17:01:02.457Z,10.00
2018-12-05T17:03:33.467Z,10.10
2018-12-05T17:06:07.903Z,10.10
2018-12-05T17:08:42.085Z,10.10
2018-12-05T17:11:14.255Z,10.10
2018-12-05T17:13:46.181Z,10.10
2018-12-05T17:16:18.418Z,10.00
2018-12-05T17:18:51.981Z,10.00
2018-12-05T17:21:28.464Z,10.00
2018-12-05T17:24:00.672Z,10.00
2018-12-05T17:26:32.309Z,10.00
2018-12-05T17:29:04.051Z,10.00
2018-12-05T17:31:40.690Z,10.00
2018-12-05T17:34:12.216Z,10.10
2018-12-05T17:36:43.805Z,10.10
2018-12-05T17:39:15.461Z,10.20
2018-12-05T17:41:47.510Z,10.20
2018-12-05T17:44:18.841Z,10.20
2018-12-05T17:46:51.647Z,10.20
2018-12-05T17:49:25.519Z,10.20
2018-12-05T17:51:59.910Z,10.20
2018-12-05T17:54:33.522Z,10.20
2018-12-05T17:57:05.745Z,10.20
2018-12-05T17:59:35.247Z,10.20
2018-12-05T18:02:07.201Z,10.20
2018-12-05T18:04:39.822Z,10.20
2018-12-05T18:07:17.894Z,10.20
2018-12-05T18:09:49.205Z,10.20
2018-12-05T18:12:30.782Z,10.20
2018-12-05T18:15:05.211Z,10.20
2018-12-05T18:17:41.545Z,10.20
2018-12-05T18:20:13.656Z,10.20
2018-12-05T18:22:45.877Z,10.20
2018-12-05T18:25:17.543Z,10.20
2018-12-05T18:27:52.948Z,10.30
2018-12-05T18:30:26.426Z,10.30
2018-12-05T18:33:01.773Z,10.30
2018-12-05T18:35:55.965Z,10.30
2018-12-05T18:38:31.195Z,10.30
2018-12-05T18:41:03.284Z,10.30
2018-12-05T18:43:35.537Z,10.30
2018-12-05T18:46:08.885Z,10.30
2018-12-05T18:48:45.866Z,10.30
2018-12-05T18:51:18.749Z,10.30
2018-12-05T18:53:50.317Z,10.30
2018-12-05T18:56:22.185Z,10.30
2018-12-05T18:58:54.118Z,10.30
2018-12-05T19:01:25.153Z,10.30
2018-12-05T19:04:00.473Z,10.40
2018-12-05T19:06:31.571Z,10.40
2018-12-05T19:09:06.924Z,10.40
2018-12-05T19:11:40.780Z,10.40
2018-12-05T19:14:19.992Z,10.40
2018-12-05T19:16:50.014Z,10.40
2018-12-05T19:19:23.048Z,10.40
2018-12-05T19:21:54.178Z,10.40
2018-12-05T19:24:29.346Z,10.40
2018-12-05T19:27:02.696Z,10.40
2018-12-05T19:29:34.982Z,10.40
2018-12-05T19:32:06.222Z,10.40
2018-12-05T19:34:40.250Z,10.40
2018-12-05T19:37:12.056Z,10.40
2018-12-05T19:39:43.794Z,10.40
2018-12-05T19:42:17.724Z,10.40
2018-12-05T19:44:52.406Z,10.40
2018-12-05T19:47:26.261Z,10.30
2018-12-05T19:49:58.667Z,10.30
2018-12-05T19:52:36.451Z,10.20
2018-12-05T19:55:13.140Z,10.20
2018-12-05T19:57:44.959Z,10.10
2018-12-05T20:00:16.691Z,10.10
2018-12-05T20:02:50.470Z,10.10
2018-12-05T20:05:22.941Z,10.10
2018-12-05T20:07:54.105Z,10.10
2018-12-05T20:10:28.470Z,10.10
2018-12-05T20:13:01.350Z,10.20
2018-12-05T20:15:34.117Z,10.20
2018-12-05T20:18:05.398Z,10.20
2018-12-05T20:20:39.865Z,10.20
2018-12-05T20:23:11.326Z,10.20
2018-12-05T20:25:46.190Z,10.20
2018-12-05T20:28:17.953Z,10.20
2018-12-05T20:30:49.633Z,10.20
2018-12-05T20:33:23.458Z,10.20
2018-12-05T20:35:55.936Z,10.20
2018-12-05T20:38:29.679Z,10.30
2018-12-05T20:41:04.291Z,10.30
2018-12-05T20:43:35.497Z,10.30
2018-12-05T20:46:12.385Z,10.30
2018-12-05T20:48:43.357Z,10.30
2018-12-05T20:51:17.795Z,10.30
2018-12-05T20:53:48.709Z,10.30
2018-12-05T20:56:24.145Z,10.40
2018-12-05T20:58:55.885Z,10.40
2018-12-05T21:01:29.389Z,10.50
2018-12-05T21:04:01.017Z,10.50
2018-12-05T21:06:34.380Z,10.50
2018-12-05T21:09:08.375Z,10.60
2018-12-05T21:11:39.578Z,10.60
2018-12-05T21:14:21.695Z,10.60
2018-12-05T21:16:53.940Z,10.60
2018-12-05T21:19:28.193Z,10.60
2018-12-05T21:22:02.085Z,10.60
2018-12-05T21:24:36.805Z,10.60
2018-12-05T21:27:08.660Z,10.70
2018-12-05T21:29:40.030Z,10.80
2018-12-05T21:32:14.309Z,10.80
2018-12-05T21:34:52.427Z,10.70
2018-12-05T21:37:23.723Z,10.70
2018-12-05T21:39:55.388Z,10.80
2018-12-05T21:42:27.331Z,10.80
2018-12-05T21:45:05.218Z,10.80
2018-12-05T21:47:36.698Z,10.80
2018-12-05T21:50:10.748Z,10.80
2018-12-05T21:52:41.933Z,10.70
2018-12-05T21:55:17.569Z,10.70
2018-12-05T21:57:51.585Z,10.80
2018-12-05T22:00:23.656Z,10.80
2018-12-05T22:02:55.376Z,10.80
2018-12-05T22:05:29.379Z,10.80
2018-12-05T22:08:02.720Z,10.80
2018-12-05T22:10:34.913Z,10.80
2018-12-05T22:13:06.381Z,10.80
2018-12-05T22:15:42.323Z,10.80
2018-12-05T22:18:13.240Z,10.80
2018-12-05T22:20:48.751Z,10.80
2018-12-05T22:23:19.857Z,10.80
2018-12-05T22:25:52.378Z,10.80
2018-12-05T22:28:22.218Z,10.80
2018-12-05T22:30:53.407Z,10.70
2018-12-05T22:33:25.548Z,10.80
2018-12-05T22:39:27.594Z,10.80
2018-12-05T22:41:59.321Z,10.70
2018-12-05T22:44:32.611Z,10.70
2018-12-05T22:47:07.915Z,10.70
2018-12-05T22:49:39.980Z,10.70
2018-12-05T22:52:12.718Z,10.60
2018-12-05T22:54:43.677Z,10.60
2018-12-05T22:57:15.435Z,10.60
2018-12-05T22:59:46.766Z,10.60
2018-12-05T23:02:18.913Z,10.50
2018-12-05T23:04:51.045Z,10.50
2018-12-05T23:07:23.349Z,10.50
2018-12-05T23:09:56.885Z,10.50
2018-12-05T23:12:29.595Z,10.50
2018-12-05T23:15:00.643Z,10.40
2018-12-05T23:17:32.142Z,10.40
2018-12-05T23:20:03.258Z,10.40
2018-12-05T23:22:34.725Z,10.40
2018-12-05T23:25:06.332Z,10.40
2018-12-05T23:27:40.607Z,10.40
2018-12-05T23:30:11.902Z,10.40
2018-12-05T23:32:43.923Z,10.40
2018-12-05T23:35:15.161Z,10.40
2018-12-05T23:37:50.205Z,10.40
2018-12-05T23:40:21.630Z,10.40
2018-12-05T23:42:53.549Z,10.40
2018-12-05T23:45:24.743Z,10.40
2018-12-05T23:47:57.291Z,10.40
2018-12-05T23:50:30.896Z,10.40
2018-12-05T23:53:03.691Z,10.30
2018-12-05T23:55:35.775Z,10.40
2018-12-05T23:58:08.152Z,10.40
